Capetan Vassilis — C6S2085 — position and weather

sailwx.info

Track history (hours):
 
Tides and Currents Weather Stations Pressure Air Temp Water Temp Dewpoint Dewpoint Depression Visibility Wind Speed Wind Dir Waves Ship Positions

Capetan Vassilis

Last reported at 2017-Mar-24 23:33 UTC. Time now 2017-Mar-27 08:36 UTC.
Position N 28°05' W 015°22'.

Length 191 m; draft 11.7 m.

MMSI: 311552000.

Date/timePositionNaut miles runAvg speedWind from/ knotsBaromVisibWave heightAir tempDewpointWater temp
2017-Mar-24 23:33N 28°05' W 015°22'3 0.3
2017-Mar-24 15:26N 28°07' W 015°24'  
2017-Mar-19 02:19N 48°40' W 005°58'911.3
2017-Mar-19 01:29N 48°48' W 005°52'1110.7
2017-Mar-19 00:28N 48°56' W 005°40'1010.8
2017-Mar-18 23:31N 49°01' W 005°26'1210.4
2017-Mar-18 22:20N 49°07' W 005°10'70 9.8
2017-Mar-18 15:13N 49°43' W 003°38'811.5
2017-Mar-18 14:29N 49°47' W 003°27'1010.9
2017-Mar-18 13:33N 49°53' W 003°13'1010.2
2017-Mar-18 12:33N 49°58' W 002°60'9 9.1
2017-Mar-18 11:33N 50°02' W 002°47'35 8.7
2017-Mar-18 07:33N 50°10' W 001°55'1111.2
2017-Mar-18 06:33N 50°13' W 001°37'1211.9
2017-Mar-18 05:33N 50°16' W 001°20'3411.3
2017-Mar-18 02:33N 50°25' W 000°28'10 9.1
2017-Mar-18 01:30N 50°28' W 000°14'7 7.6
2017-Mar-18 00:33N 50°30' W 000°03'8 7.6
2017-Mar-17 23:33N 50°31' E 000°09'8 8.0
2017-Mar-17 22:33N 50°33' E 000°21'9 9.2
2017-Mar-17 21:33N 50°36' E 000°35'1110.7
2017-Mar-17 20:33N 50°42' E 000°49'1211.5
2017-Mar-17 19:32N 50°49' E 001°04'1111.2
2017-Mar-17 18:33N 50°55' E 001°18'1010.2
2017-Mar-17 17:33N 51°03' E 001°29'9 8.8
2017-Mar-17 16:33N 51°09' E 001°39'9 8.6
2017-Mar-17 15:33N 51°15' E 001°48'10 9.6
2017-Mar-17 14:33N 51°23' E 001°57'1111.3
2017-Mar-17 13:33N 51°32' E 002°08'47010.9
2017-Mar-15 18:21N 57°50' E 010°12'8 9.0
2017-Mar-15 17:31N 57°49' E 010°26'8 8.9
2017-Mar-15 16:33N 57°49' E 010°42'8 7.4
2017-Mar-15 15:31N 57°41' E 010°44'0 0.1
2017-Mar-15 13:16N 57°41' E 010°44'0 0.0
2017-Mar-15 12:31N 57°41' E 010°44'0 0.0
2017-Mar-15 11:19N 57°41' E 010°44'0 0.2
2017-Mar-15 10:33N 57°41' E 010°44'4 4.4
2017-Mar-15 09:33N 57°39' E 010°37'0 0.0
2017-Mar-15 08:29N 57°39' E 010°37'0 0.0
2017-Mar-15 07:29N 57°39' E 010°37'0 0.0
2017-Mar-15 06:20N 57°39' E 010°37'0 0.0
2017-Mar-15 05:32N 57°39' E 010°37'0 0.0
2017-Mar-15 04:23N 57°39' E 010°37'0 0.0
2017-Mar-15 03:32N 57°39' E 010°37'0 0.0
2017-Mar-15 02:26N 57°39' E 010°37'0 0.0
2017-Mar-15 01:23N 57°39' E 010°37'0 0.0
2017-Mar-15 00:28N 57°39' E 010°37'  
Track history (hours):
 
Tides and Currents Weather Stations Pressure Air Temp Water Temp Dewpoint Dewpoint Depression Visibility Wind Speed Wind Dir Waves Ship Positions

Capetan Vassilis

Last reported at 2017-Mar-24 23:33 UTC. Time now 2017-Mar-27 08:36 UTC.
Position N 28°05' W 015°22'.

Length 191 m; draft 11.7 m.

MMSI: 311552000.

Date/timePositionNaut miles runAvg speedWind from/ knotsBaromVisibWave heightAir tempDewpointWater temp
2017-Mar-24 23:33N 28°05' W 015°22'3 0.3
2017-Mar-24 15:26N 28°07' W 015°24'  
2017-Mar-19 02:19N 48°40' W 005°58'911.3
2017-Mar-19 01:29N 48°48' W 005°52'1110.7
2017-Mar-19 00:28N 48°56' W 005°40'1010.8
2017-Mar-18 23:31N 49°01' W 005°26'1210.4
2017-Mar-18 22:20N 49°07' W 005°10'70 9.8
2017-Mar-18 15:13N 49°43' W 003°38'811.5
2017-Mar-18 14:29N 49°47' W 003°27'1010.9
2017-Mar-18 13:33N 49°53' W 003°13'1010.2
2017-Mar-18 12:33N 49°58' W 002°60'9 9.1
2017-Mar-18 11:33N 50°02' W 002°47'35 8.7
2017-Mar-18 07:33N 50°10' W 001°55'1111.2
2017-Mar-18 06:33N 50°13' W 001°37'1211.9
2017-Mar-18 05:33N 50°16' W 001°20'3411.3
2017-Mar-18 02:33N 50°25' W 000°28'10 9.1
2017-Mar-18 01:30N 50°28' W 000°14'7 7.6
2017-Mar-18 00:33N 50°30' W 000°03'8 7.6
2017-Mar-17 23:33N 50°31' E 000°09'8 8.0
2017-Mar-17 22:33N 50°33' E 000°21'9 9.2
2017-Mar-17 21:33N 50°36' E 000°35'1110.7
2017-Mar-17 20:33N 50°42' E 000°49'1211.5
2017-Mar-17 19:32N 50°49' E 001°04'1111.2
2017-Mar-17 18:33N 50°55' E 001°18'1010.2
2017-Mar-17 17:33N 51°03' E 001°29'9 8.8
2017-Mar-17 16:33N 51°09' E 001°39'9 8.6
2017-Mar-17 15:33N 51°15' E 001°48'10 9.6
2017-Mar-17 14:33N 51°23' E 001°57'1111.3
2017-Mar-17 13:33N 51°32' E 002°08'47010.9
2017-Mar-15 18:21N 57°50' E 010°12'8 9.0
2017-Mar-15 17:31N 57°49' E 010°26'8 8.9
2017-Mar-15 16:33N 57°49' E 010°42'8 7.4
2017-Mar-15 15:31N 57°41' E 010°44'0 0.1
2017-Mar-15 13:16N 57°41' E 010°44'0 0.0
2017-Mar-15 12:31N 57°41' E 010°44'0 0.0
2017-Mar-15 11:19N 57°41' E 010°44'0 0.2
2017-Mar-15 10:33N 57°41' E 010°44'4 4.4
2017-Mar-15 09:33N 57°39' E 010°37'0 0.0
2017-Mar-15 08:29N 57°39' E 010°37'0 0.0
2017-Mar-15 07:29N 57°39' E 010°37'0 0.0
2017-Mar-15 06:20N 57°39' E 010°37'0 0.0
2017-Mar-15 05:32N 57°39' E 010°37'0 0.0
2017-Mar-15 04:23N 57°39' E 010°37'0 0.0
2017-Mar-15 03:32N 57°39' E 010°37'0 0.0
2017-Mar-15 02:26N 57°39' E 010°37'0 0.0
2017-Mar-15 01:23N 57°39' E 010°37'0 0.0
2017-Mar-15 00:28N 57°39' E 010°37'  

Dump ship's entire track history